createdAt,value
2018-05-18T00:01:12.358Z,23.33
2018-05-18T00:03:39.918Z,11.33
2018-05-18T00:06:07.474Z,14.30
2018-05-18T00:08:35.139Z,11.30
2018-05-18T00:11:02.776Z,12.40
2018-05-18T00:13:30.396Z,13.43
2018-05-18T00:15:57.964Z,16.33
2018-05-18T00:18:25.520Z,11.57
2018-05-18T00:20:53.137Z,10.60
2018-05-18T00:23:20.701Z,22.73
2018-05-18T00:25:48.269Z,13.13
2018-05-18T00:28:15.824Z,12.00
2018-05-18T00:30:43.411Z,14.20
2018-05-18T00:33:10.968Z,10.07
2018-05-18T00:35:38.584Z,12.53
2018-05-18T00:38:06.146Z,16.00
2018-05-18T00:40:33.772Z,13.07
2018-05-18T00:43:01.341Z,10.17
2018-05-18T00:45:29.171Z,11.37
2018-05-18T00:47:56.793Z,9.77
2018-05-18T00:50:24.399Z,10.10
2018-05-18T00:52:51.935Z,11.03
2018-05-18T00:55:31.450Z,22.10
2018-05-18T00:57:59.021Z,16.90
2018-05-18T01:00:26.590Z,14.10
2018-05-18T01:02:54.208Z,18.20
2018-05-18T01:05:21.832Z,14.00
2018-05-18T01:07:49.471Z,11.50
2018-05-18T01:10:17.104Z,9.67
2018-05-18T01:12:44.641Z,9.37
2018-05-18T01:15:12.208Z,13.23
2018-05-18T01:17:39.829Z,17.00
2018-05-18T01:20:07.401Z,15.83
2018-05-18T01:22:35.054Z,21.00
2018-05-18T01:25:02.678Z,29.40
2018-05-18T01:27:30.258Z,31.50
2018-05-18T01:29:57.877Z,27.00
2018-05-18T01:32:25.520Z,31.60
2018-05-18T01:34:53.152Z,33.23
2018-05-18T01:37:20.723Z,24.60
2018-05-18T01:39:48.269Z,24.70
2018-05-18T01:42:15.912Z,30.80
2018-05-18T01:44:43.533Z,29.80
2018-05-18T01:47:11.158Z,21.20
2018-05-18T01:49:38.739Z,25.27
2018-05-18T01:52:06.323Z,23.30
2018-05-18T01:54:33.901Z,21.40
2018-05-18T01:57:01.533Z,26.30
2018-05-18T01:59:29.224Z,23.70
2018-05-18T02:01:56.781Z,24.10
2018-05-18T02:04:24.372Z,24.60
2018-05-18T02:06:51.933Z,20.60
2018-05-18T02:09:19.579Z,19.53
2018-05-18T02:11:47.143Z,16.53
2018-05-18T02:14:14.746Z,15.23
2018-05-18T02:16:42.308Z,13.50
2018-05-18T02:19:09.937Z,12.23
2018-05-18T02:21:37.508Z,14.30
2018-05-18T02:24:05.064Z,12.43
2018-05-18T02:26:32.637Z,19.47
2018-05-18T02:29:00.205Z,12.30
2018-05-18T02:31:27.922Z,19.10
2018-05-18T02:33:55.550Z,13.63
2018-05-18T02:36:23.113Z,9.87
2018-05-18T02:38:50.741Z,7.90
2018-05-18T02:41:18.301Z,9.93
2018-05-18T02:43:45.872Z,18.30
2018-05-18T02:46:13.502Z,11.97
2018-05-18T02:48:41.136Z,13.83
2018-05-18T02:51:08.696Z,11.67
2018-05-18T02:53:36.313Z,16.80
2018-05-18T02:56:03.950Z,16.97
2018-05-18T02:58:31.516Z,18.97
2018-05-18T03:00:59.092Z,23.93
2018-05-18T03:03:26.730Z,22.03
2018-05-18T03:05:54.430Z,19.70
2018-05-18T03:08:21.996Z,29.40
2018-05-18T03:10:49.633Z,16.33
2018-05-18T03:13:17.209Z,18.40
2018-05-18T03:15:44.854Z,25.83
2018-05-18T03:18:12.433Z,31.40
2018-05-18T03:20:40.061Z,23.50
2018-05-18T03:23:07.632Z,22.93
2018-05-18T03:25:35.193Z,30.27
2018-05-18T03:28:02.871Z,13.37
2018-05-18T03:30:30.436Z,18.37
2018-05-18T03:32:58.069Z,29.70
2018-05-18T03:35:25.705Z,19.90
2018-05-18T03:37:53.251Z,14.87
2018-05-18T03:40:20.825Z,18.83
2018-05-18T03:42:48.403Z,18.57
2018-05-18T03:45:15.976Z,23.40
2018-05-18T03:47:43.597Z,21.57
2018-05-18T03:50:11.220Z,20.77
2018-05-18T03:52:38.792Z,21.53
2018-05-18T03:55:06.364Z,22.63
2018-05-18T03:57:33.943Z,15.67
2018-05-18T04:00:01.569Z,30.03
2018-05-18T04:02:40.850Z,12.30
2018-05-18T04:05:20.114Z,9.57
2018-05-18T04:07:59.509Z,15.60
2018-05-18T04:10:27.084Z,14.03
2018-05-18T04:12:54.652Z,14.47
2018-05-18T04:15:22.230Z,8.10
2018-05-18T04:17:49.797Z,11.53
2018-05-18T04:20:17.373Z,11.73
2018-05-18T04:22:44.948Z,9.70
2018-05-18T04:25:12.517Z,10.40
2018-05-18T04:27:40.080Z,12.63
2018-05-18T04:30:07.792Z,15.93
2018-05-18T04:32:35.302Z,12.33
2018-05-18T04:35:02.865Z,8.73
2018-05-18T04:37:30.434Z,7.90
2018-05-18T04:39:58.002Z,7.20
2018-05-18T04:42:25.597Z,10.80
2018-05-18T04:44:53.171Z,20.70
2018-05-18T04:47:20.764Z,8.40
2018-05-18T04:49:48.459Z,7.23
2018-05-18T04:52:16.029Z,12.30
2018-05-18T04:54:43.650Z,8.70
2018-05-18T04:57:11.252Z,6.13
2018-05-18T04:59:38.803Z,6.20
2018-05-18T05:02:06.357Z,8.10
2018-05-18T05:04:33.974Z,11.40
2018-05-18T05:07:01.590Z,7.50
2018-05-18T05:09:29.152Z,6.20
2018-05-18T05:11:56.783Z,4.40
2018-05-18T05:14:24.354Z,4.63
2018-05-18T05:16:51.977Z,3.77
2018-05-18T05:19:19.537Z,3.13
2018-05-18T05:21:47.097Z,3.37
2018-05-18T05:24:14.671Z,7.23
2018-05-18T05:26:42.237Z,4.27
2018-05-18T05:29:09.913Z,4.43
2018-05-18T05:31:37.474Z,6.13
2018-05-18T05:34:05.017Z,2.60
2018-05-18T05:36:32.703Z,3.37
2018-05-18T05:39:00.256Z,3.93
2018-05-18T05:41:27.819Z,9.80
2018-05-18T05:43:57.260Z,11.93
2018-05-18T05:46:24.876Z,3.67
2018-05-18T05:48:52.699Z,8.70
2018-05-18T05:51:20.257Z,7.93
2018-05-18T05:53:47.862Z,3.30
2018-05-18T05:56:15.472Z,6.33
2018-05-18T05:58:43.093Z,3.73
2018-05-18T06:01:10.652Z,3.70
2018-05-18T06:03:38.216Z,6.30
2018-05-18T06:06:05.773Z,6.90
2018-05-18T06:08:33.315Z,5.53
2018-05-18T06:11:00.917Z,3.20
2018-05-18T06:13:28.492Z,7.47
2018-05-18T06:15:56.111Z,7.33
2018-05-18T06:18:23.734Z,14.63
2018-05-18T06:20:51.350Z,7.30
2018-05-18T06:23:18.986Z,5.30
2018-05-18T06:25:46.561Z,6.27
2018-05-18T06:28:14.172Z,3.67
2018-05-18T06:30:41.804Z,8.10
2018-05-18T06:33:09.365Z,4.00
2018-05-18T06:35:36.988Z,3.47
2018-05-18T06:38:04.535Z,4.33
2018-05-18T06:40:32.147Z,3.57
2018-05-18T06:42:59.757Z,3.13
2018-05-18T06:45:27.373Z,8.63
2018-05-18T06:47:54.936Z,3.33
2018-05-18T06:50:22.559Z,11.87
2018-05-18T06:52:50.184Z,9.73
2018-05-18T06:55:17.861Z,15.93
2018-05-18T06:57:45.436Z,4.63
2018-05-18T07:00:13.000Z,4.90
2018-05-18T07:02:40.556Z,5.13
2018-05-18T07:05:08.229Z,4.97
2018-05-18T07:07:35.805Z,7.27
2018-05-18T07:10:03.435Z,3.03
2018-05-18T07:12:31.079Z,4.97
2018-05-18T07:14:58.632Z,3.07
2018-05-18T07:17:26.253Z,7.83
2018-05-18T07:19:53.909Z,4.50
2018-05-18T07:22:21.562Z,2.50
2018-05-18T07:24:49.189Z,4.60
2018-05-18T07:27:16.745Z,2.83
2018-05-18T07:29:44.358Z,2.50
2018-05-18T07:32:12.075Z,2.80
2018-05-18T07:34:39.638Z,4.60
2018-05-18T07:37:07.261Z,2.57
2018-05-18T07:39:34.898Z,5.90
2018-05-18T07:42:02.560Z,8.17
2018-05-18T07:44:30.129Z,14.93
2018-05-18T07:46:57.732Z,11.50
2018-05-18T07:49:25.303Z,7.50
2018-05-18T07:51:52.882Z,9.13
2018-05-18T07:54:20.519Z,1.80
2018-05-18T07:56:48.143Z,3.23
2018-05-18T07:59:15.762Z,3.57
2018-05-18T08:01:43.446Z,2.60
2018-05-18T08:04:11.045Z,3.70
2018-05-18T08:06:38.673Z,4.80
2018-05-18T08:09:06.277Z,2.60
2018-05-18T08:11:33.893Z,1.73
2018-05-18T08:14:01.484Z,1.93
2018-05-18T08:16:29.105Z,3.17
2018-05-18T08:18:56.735Z,9.40
2018-05-18T08:21:24.297Z,1.97
2018-05-18T08:23:51.953Z,5.33
2018-05-18T08:26:19.577Z,2.70
2018-05-18T08:28:58.967Z,3.23
2018-05-18T08:31:26.585Z,2.13
2018-05-18T08:33:54.159Z,1.77
2018-05-18T08:36:21.720Z,3.07
2018-05-18T08:38:49.287Z,1.33
2018-05-18T08:41:16.855Z,2.50
2018-05-18T08:43:44.464Z,2.93
2018-05-18T08:46:12.021Z,0.83
2018-05-18T08:48:39.581Z,1.40
2018-05-18T08:51:07.153Z,2.17
2018-05-18T08:53:34.712Z,1.00
2018-05-18T08:56:02.393Z,2.97
2018-05-18T08:58:29.953Z,1.90
2018-05-18T09:00:57.514Z,2.27
2018-05-18T09:03:25.062Z,2.10
2018-05-18T09:05:52.613Z,1.60
2018-05-18T09:08:20.228Z,1.33
2018-05-18T09:10:47.845Z,2.90
2018-05-18T09:13:15.396Z,2.03
2018-05-18T09:15:43.021Z,1.83
2018-05-18T09:18:10.765Z,1.50
2018-05-18T09:20:38.333Z,1.43
2018-05-18T09:23:05.949Z,1.30
2018-05-18T09:25:33.560Z,1.13
2018-05-18T09:28:01.117Z,1.50
2018-05-18T09:30:28.673Z,1.53
2018-05-18T09:32:56.236Z,2.60
2018-05-18T09:35:23.921Z,2.03
2018-05-18T09:37:51.500Z,4.00
2018-05-18T09:40:19.064Z,1.07
2018-05-18T09:42:46.678Z,5.00
2018-05-18T09:45:14.259Z,2.60
2018-05-18T09:47:41.821Z,3.63
2018-05-18T09:50:09.485Z,1.67
2018-05-18T09:52:37.058Z,4.40
2018-05-18T09:55:04.694Z,1.53
2018-05-18T09:57:32.237Z,8.70
2018-05-18T09:59:59.876Z,2.23
2018-05-18T10:02:27.449Z,1.13
2018-05-18T10:04:55.018Z,3.43
2018-05-18T10:07:22.657Z,10.60
2018-05-18T10:09:50.213Z,2.23
2018-05-18T10:12:17.889Z,5.67
2018-05-18T10:14:45.525Z,3.20
2018-05-18T10:17:13.204Z,1.30
2018-05-18T10:19:40.861Z,6.57
2018-05-18T10:22:08.419Z,2.00
2018-05-18T10:24:36.005Z,2.30
2018-05-18T10:27:03.636Z,1.30
2018-05-18T10:29:31.176Z,7.43
2018-05-18T10:31:58.810Z,3.20
2018-05-18T10:34:26.524Z,2.13
2018-05-18T10:36:54.148Z,4.53
2018-05-18T10:39:21.729Z,1.80
2018-05-18T10:41:49.356Z,3.13
2018-05-18T10:44:16.917Z,1.37
2018-05-18T10:46:44.488Z,3.10
2018-05-18T10:49:12.113Z,1.33
2018-05-18T10:51:39.813Z,2.50
2018-05-18T10:54:07.381Z,2.67
2018-05-18T10:56:34.956Z,2.33
2018-05-18T10:59:02.538Z,2.60
2018-05-18T11:01:30.088Z,2.93
2018-05-18T11:03:57.660Z,1.30
2018-05-18T11:06:25.229Z,9.10
2018-05-18T11:08:52.909Z,1.93
2018-05-18T11:11:20.468Z,1.90
2018-05-18T11:13:48.072Z,1.93
2018-05-18T11:16:15.639Z,2.30
2018-05-18T11:18:43.267Z,2.23
2018-05-18T11:21:10.871Z,3.50
2018-05-18T11:23:38.425Z,8.40
2018-05-18T11:26:06.050Z,5.17
2018-05-18T11:28:33.621Z,3.97
2018-05-18T11:31:01.176Z,6.53
2018-05-18T11:33:28.788Z,1.70
2018-05-18T11:35:56.405Z,8.10
2018-05-18T11:38:23.965Z,6.03
2018-05-18T11:40:51.628Z,1.93
2018-05-18T11:43:19.249Z,2.30
2018-05-18T11:45:46.921Z,2.43
2018-05-18T11:48:14.542Z,2.67
2018-05-18T11:50:42.101Z,2.63
2018-05-18T11:53:09.670Z,3.97
2018-05-18T11:55:37.304Z,1.33
2018-05-18T11:58:04.932Z,6.85
2018-05-18T12:00:32.577Z,2.12
2018-05-18T12:03:00.180Z,2.75
2018-05-18T12:05:27.740Z,1.73
2018-05-18T12:07:55.308Z,5.10
2018-05-18T12:10:22.880Z,2.10
2018-05-18T12:12:50.436Z,6.37
2018-05-18T12:15:18.060Z,2.62
2018-05-18T12:17:45.634Z,1.60
2018-05-18T12:20:13.258Z,1.92
2018-05-18T12:22:40.820Z,2.15
2018-05-18T12:25:08.388Z,1.58
2018-05-18T12:27:35.960Z,11.50
2018-05-18T12:30:03.544Z,2.25
2018-05-18T12:32:31.186Z,2.92
2018-05-18T12:34:58.744Z,1.33
2018-05-18T12:37:26.522Z,2.30
2018-05-18T12:39:54.098Z,2.10
2018-05-18T12:42:21.665Z,3.08
2018-05-18T12:44:49.302Z,1.45
2018-05-18T12:47:16.865Z,5.65
2018-05-18T12:49:44.432Z,3.65
2018-05-18T12:52:12.150Z,9.88
2018-05-18T12:54:39.760Z,4.60
2018-05-18T12:57:07.324Z,5.18
2018-05-18T12:59:34.959Z,1.35
2018-05-18T13:02:02.492Z,2.45
2018-05-18T13:04:30.049Z,2.83
2018-05-18T13:06:57.630Z,1.60
2018-05-18T13:09:25.184Z,3.80
2018-05-18T13:11:52.800Z,1.70
2018-05-18T13:14:20.418Z,4.20
2018-05-18T13:16:47.984Z,2.77
2018-05-18T13:19:15.560Z,3.93
2018-05-18T13:21:43.120Z,3.67
2018-05-18T13:24:10.763Z,2.43
2018-05-18T13:26:38.429Z,2.63
2018-05-18T13:29:06.052Z,3.67
2018-05-18T13:31:34.678Z,4.60
2018-05-18T13:34:02.256Z,2.90
2018-05-18T13:36:29.880Z,2.63
2018-05-18T13:38:57.436Z,6.33
2018-05-18T13:41:25.061Z,6.83
2018-05-18T13:43:52.649Z,8.50
2018-05-18T13:46:20.260Z,2.55
2018-05-18T13:48:47.815Z,1.30
2018-05-18T13:51:15.378Z,2.35
2018-05-18T13:53:42.944Z,9.95
2018-05-18T13:56:10.560Z,1.80
2018-05-18T13:58:38.226Z,4.13
2018-05-18T14:01:05.773Z,4.37
2018-05-18T14:03:33.397Z,7.23
2018-05-18T14:06:00.952Z,5.03
2018-05-18T14:08:28.513Z,6.13
2018-05-18T14:10:56.162Z,1.70
2018-05-18T14:13:23.781Z,7.67
2018-05-18T14:15:51.975Z,7.97
2018-05-18T14:18:19.616Z,4.73
2018-05-18T14:20:47.233Z,5.00
2018-05-18T14:23:14.804Z,3.70
2018-05-18T14:25:42.421Z,8.50
2018-05-18T14:28:10.050Z,15.53
2018-05-18T14:30:37.661Z,3.00
2018-05-18T14:33:05.354Z,5.90
2018-05-18T14:35:32.916Z,35.93
2018-05-18T14:38:00.640Z,5.10
2018-05-18T14:40:28.253Z,3.40
2018-05-18T14:42:55.932Z,22.17
2018-05-18T14:45:23.569Z,12.23
2018-05-18T14:47:51.189Z,4.70
2018-05-18T14:50:18.760Z,3.60
2018-05-18T14:52:46.336Z,11.40
2018-05-18T14:55:13.942Z,8.60
2018-05-18T14:57:41.504Z,3.63
2018-05-18T15:00:09.068Z,4.20
2018-05-18T15:02:36.692Z,2.70
2018-05-18T15:05:04.264Z,1.90
2018-05-18T15:07:31.894Z,5.47
2018-05-18T15:09:59.458Z,2.33
2018-05-18T15:12:27.230Z,3.00
2018-05-18T15:14:54.855Z,12.07
2018-05-18T15:17:22.480Z,4.63
2018-05-18T15:19:50.113Z,4.93
2018-05-18T15:22:17.733Z,8.13
2018-05-18T15:24:45.352Z,2.90
2018-05-18T15:27:12.974Z,2.70
2018-05-18T15:29:40.585Z,7.40
2018-05-18T15:32:08.141Z,3.57
2018-05-18T15:34:35.757Z,3.10
2018-05-18T15:37:03.405Z,3.90
2018-05-18T15:39:30.973Z,3.50
2018-05-18T15:41:58.541Z,4.80
2018-05-18T15:44:26.205Z,4.70
2018-05-18T15:46:53.832Z,2.90
2018-05-18T15:49:21.415Z,6.33
2018-05-18T15:51:49.010Z,2.67
2018-05-18T15:54:16.577Z,16.00
2018-05-18T15:56:44.128Z,5.37
2018-05-18T15:59:11.696Z,2.20
2018-05-18T16:01:39.309Z,3.63
2018-05-18T16:04:06.981Z,8.10
2018-05-18T16:06:34.536Z,5.50
2018-05-18T16:09:02.100Z,3.80
2018-05-18T16:11:29.680Z,12.03
2018-05-18T16:13:57.301Z,4.10
2018-05-18T16:16:24.945Z,3.77
2018-05-18T16:18:52.570Z,4.63
2018-05-18T16:21:20.229Z,5.20
2018-05-18T16:23:47.803Z,4.47
2018-05-18T16:26:15.479Z,3.90
2018-05-18T16:28:43.047Z,3.07
2018-05-18T16:31:10.617Z,5.40
2018-05-18T16:33:38.293Z,7.80
2018-05-18T16:36:05.925Z,3.27
2018-05-18T16:38:33.486Z,4.10
2018-05-18T16:41:01.052Z,3.90
2018-05-18T16:43:28.604Z,2.50
2018-05-18T16:45:56.225Z,2.37
2018-05-18T16:48:23.782Z,2.33
2018-05-18T16:50:51.441Z,2.37
2018-05-18T16:53:19.008Z,3.43
2018-05-18T16:55:46.644Z,4.67
2018-05-18T16:58:14.273Z,6.10
2018-05-18T17:00:41.900Z,2.90
2018-05-18T17:03:09.467Z,4.07
2018-05-18T17:05:37.094Z,4.30
2018-05-18T17:08:04.742Z,4.40
2018-05-18T17:10:32.308Z,3.23
2018-05-18T17:12:59.928Z,3.63
2018-05-18T17:15:27.607Z,4.97
2018-05-18T17:17:55.160Z,2.53
2018-05-18T17:20:22.816Z,5.33
2018-05-18T17:22:50.380Z,7.70
2018-05-18T17:25:18.002Z,9.23
2018-05-18T17:27:46.917Z,4.37
2018-05-18T17:30:14.487Z,4.90
2018-05-18T17:32:43.643Z,3.30
2018-05-18T17:35:11.237Z,5.20
2018-05-18T17:37:38.803Z,4.00
2018-05-18T17:40:06.436Z,5.33
2018-05-18T17:42:33.992Z,2.90
2018-05-18T17:45:01.600Z,7.97
2018-05-18T17:47:29.165Z,6.07
2018-05-18T17:49:56.917Z,5.50
2018-05-18T17:52:24.461Z,4.27
2018-05-18T17:54:52.088Z,3.87
2018-05-18T17:57:19.717Z,7.20
2018-05-18T17:59:47.268Z,8.80
2018-05-18T18:02:14.893Z,4.33
2018-05-18T18:04:42.468Z,4.93
2018-05-18T18:07:10.137Z,7.27
2018-05-18T18:09:37.688Z,8.33
2018-05-18T18:12:05.269Z,11.33
2018-05-18T18:14:32.841Z,4.67
2018-05-18T18:17:01.286Z,6.60
2018-05-18T18:19:28.912Z,5.47
2018-05-18T18:21:56.504Z,4.27
2018-05-18T18:24:24.185Z,3.47
2018-05-18T18:26:51.797Z,5.40
2018-05-18T18:29:19.357Z,9.03
2018-05-18T18:31:46.920Z,6.50
2018-05-18T18:34:14.457Z,8.50
2018-05-18T18:36:42.035Z,8.10
2018-05-18T18:39:09.578Z,12.53
2018-05-18T18:41:37.253Z,8.37
2018-05-18T18:44:04.820Z,9.73
2018-05-18T18:46:32.393Z,11.40
2018-05-18T18:48:59.968Z,6.60
2018-05-18T18:51:27.520Z,7.83
2018-05-18T18:53:55.088Z,6.37
2018-05-18T18:56:22.647Z,5.93
2018-05-18T18:58:50.395Z,5.47
2018-05-18T19:01:17.886Z,8.17
2018-05-18T19:03:45.456Z,11.17
2018-05-18T19:06:13.024Z,7.53
2018-05-18T19:08:40.649Z,6.43
2018-05-18T19:11:08.220Z,8.80
2018-05-18T19:13:35.779Z,14.20
2018-05-18T19:16:03.470Z,13.70
2018-05-18T19:18:31.071Z,11.27
2018-05-18T19:20:58.648Z,11.53
2018-05-18T19:23:26.298Z,8.33
2018-05-18T19:25:53.930Z,10.00
2018-05-18T19:28:21.581Z,7.27
2018-05-18T19:30:49.215Z,8.80
2018-05-18T19:33:16.853Z,10.10
2018-05-18T19:35:44.416Z,10.30
2018-05-18T19:38:12.036Z,8.03
2018-05-18T19:40:39.617Z,16.80
2018-05-18T19:43:07.185Z,8.33
2018-05-18T19:45:34.817Z,11.60
2018-05-18T19:48:02.395Z,8.20
2018-05-18T19:50:30.021Z,6.70
2018-05-18T19:52:57.654Z,6.53
2018-05-18T19:55:25.218Z,7.80
2018-05-18T19:57:52.801Z,5.93
2018-05-18T20:00:20.373Z,5.47
2018-05-18T20:02:48.003Z,9.37
2018-05-18T20:05:15.585Z,11.30
2018-05-18T20:07:43.257Z,9.00
2018-05-18T20:10:10.820Z,6.40
2018-05-18T20:12:38.381Z,12.33
2018-05-18T20:15:06.013Z,7.97
2018-05-18T20:17:33.649Z,21.73
2018-05-18T20:20:01.225Z,5.10
2018-05-18T20:22:28.784Z,7.03
2018-05-18T20:24:56.481Z,9.10
2018-05-18T20:27:24.007Z,6.20
2018-05-18T20:29:51.575Z,7.93
2018-05-18T20:32:19.199Z,6.90
2018-05-18T20:34:46.775Z,7.70
2018-05-18T20:37:14.357Z,6.53
2018-05-18T20:39:41.973Z,6.43
2018-05-18T20:42:09.662Z,7.50
2018-05-18T20:44:37.296Z,9.43
2018-05-18T20:47:04.885Z,7.23
2018-05-18T20:49:32.525Z,23.93
2018-05-18T20:52:00.096Z,14.93
2018-05-18T20:54:27.731Z,9.20
2018-05-18T20:56:55.307Z,10.03
2018-05-18T20:59:22.993Z,6.93
2018-05-18T21:01:50.606Z,10.63
2018-05-18T21:04:18.164Z,7.70
2018-05-18T21:06:45.743Z,5.07
2018-05-18T21:09:13.317Z,5.50
2018-05-18T21:11:40.892Z,14.37
2018-05-18T21:14:08.456Z,7.80
2018-05-18T21:16:36.141Z,5.47
2018-05-18T21:19:03.712Z,15.00
2018-05-18T21:21:31.338Z,7.60
2018-05-18T21:23:58.915Z,4.73
2018-05-18T21:26:26.529Z,6.50
2018-05-18T21:28:54.112Z,15.03
2018-05-18T21:31:21.697Z,6.07
2018-05-18T21:33:49.320Z,7.60
2018-05-18T21:36:16.937Z,7.30
2018-05-18T21:38:44.567Z,9.90
2018-05-18T21:41:12.160Z,9.60
2018-05-18T21:43:39.785Z,9.90
2018-05-18T21:46:07.393Z,16.23
2018-05-18T21:48:34.957Z,13.53
2018-05-18T21:51:02.586Z,11.40
2018-05-18T21:53:30.212Z,8.27
2018-05-18T21:55:57.886Z,10.07
2018-05-18T21:58:25.597Z,10.57
2018-05-18T22:00:53.177Z,9.43
2018-05-18T22:03:20.742Z,7.10
2018-05-18T22:05:48.384Z,9.60
2018-05-18T22:08:15.956Z,8.33
2018-05-18T22:10:43.594Z,9.37
2018-05-18T22:13:11.153Z,7.17
2018-05-18T22:15:38.800Z,10.90
2018-05-18T22:18:06.425Z,6.17
2018-05-18T22:20:34.002Z,10.70
2018-05-18T22:23:01.586Z,19.47
2018-05-18T22:25:29.221Z,10.47
2018-05-18T22:27:56.857Z,12.53
2018-05-18T22:30:24.428Z,10.60
2018-05-18T22:32:52.123Z,15.60
2018-05-18T22:35:19.762Z,16.50
2018-05-18T22:37:47.332Z,11.00
2018-05-18T22:40:14.885Z,11.60
2018-05-18T22:42:42.445Z,16.13
2018-05-18T22:45:10.026Z,8.57
2018-05-18T22:47:37.601Z,12.60
2018-05-18T22:50:05.176Z,13.80
2018-05-18T22:52:32.754Z,16.37
2018-05-18T22:55:00.316Z,9.20
2018-05-18T22:57:27.958Z,10.13
2018-05-18T22:59:55.528Z,8.87
2018-05-18T23:02:23.156Z,12.67
2018-05-18T23:04:50.781Z,11.70
2018-05-18T23:07:18.371Z,9.27
2018-05-18T23:09:45.944Z,9.20
2018-05-18T23:12:13.509Z,11.27
2018-05-18T23:14:41.084Z,12.33
2018-05-18T23:17:08.645Z,9.47
2018-05-18T23:19:36.342Z,11.30
2018-05-18T23:22:03.978Z,9.37
2018-05-18T23:24:31.603Z,10.00
2018-05-18T23:26:59.180Z,14.60
2018-05-18T23:29:26.754Z,10.40
2018-05-18T23:31:54.345Z,13.30
2018-05-18T23:34:21.926Z,16.67
2018-05-18T23:36:49.549Z,9.43
2018-05-18T23:39:17.176Z,8.07
2018-05-18T23:41:44.827Z,13.17
2018-05-18T23:44:12.405Z,10.37
2018-05-18T23:46:39.969Z,9.40
2018-05-18T23:49:07.549Z,10.40
2018-05-18T23:51:35.184Z,10.40
2018-05-18T23:54:02.869Z,10.53
2018-05-18T23:56:30.440Z,9.53
2018-05-18T23:58:58.087Z,12.80
